sensor_id;sensor_type;location;lat;lon;timestamp;temperature;humidity
20698;DHT22;10508;50.956;4.640;2024-01-11T00:39:04;-3.30;99.90
20698;DHT22;10508;50.956;4.640;2024-01-11T00:41:29;-3.40;99.90
20698;DHT22;10508;50.956;4.640;2024-01-11T00:43:55;-3.50;99.90
20698;DHT22;10508;50.956;4.640;2024-01-11T01:01:17;-3.70;99.90
20698;DHT22;10508;50.956;4.640;2024-01-11T01:03:43;-3.60;99.90
20698;DHT22;10508;50.956;4.640;2024-01-11T01:06:08;-3.50;99.90
20698;DHT22;10508;50.956;4.640;2024-01-11T01:08:34;-3.40;99.90
20698;DHT22;10508;50.956;4.640;2024-01-11T01:11:00;-3.60;99.90
20698;DHT22;10508;50.956;4.640;2024-01-11T01:13:26;-3.70;99.90
20698;DHT22;10508;50.956;4.640;2024-01-11T01:15:51;-3.50;99.90
20698;DHT22;10508;50.956;4.640;2024-01-11T04:39:16;-4.60;99.90
20698;DHT22;10508;50.956;4.640;2024-01-11T04:41:42;-4.50;99.90
20698;DHT22;10508;50.956;4.640;2024-01-11T04:44:07;-4.50;99.90
20698;DHT22;10508;50.956;4.640;2024-01-11T04:46:34;-4.50;99.90
20698;DHT22;10508;50.956;4.640;2024-01-11T04:49:00;-4.50;99.90
20698;DHT22;10508;50.956;4.640;2024-01-11T04:51:25;-4.50;99.90
20698;DHT22;10508;50.956;4.640;2024-01-11T04:53:51;-4.50;99.90
20698;DHT22;10508;50.956;4.640;2024-01-11T04:56:17;-4.50;99.90
20698;DHT22;10508;50.956;4.640;2024-01-11T04:58:44;-4.40;99.90
20698;DHT22;10508;50.956;4.640;2024-01-11T05:01:14;-4.60;99.90
20698;DHT22;10508;50.956;4.640;2024-01-11T05:03:41;-4.50;99.90
20698;DHT22;10508;50.956;4.640;2024-01-11T05:06:07;-4.40;99.90
20698;DHT22;10508;50.956;4.640;2024-01-11T05:08:33;-4.50;99.90
20698;DHT22;10508;50.956;4.640;2024-01-11T05:10:59;-4.30;99.90
20698;DHT22;10508;50.956;4.640;2024-01-11T05:13:24;-4.60;99.90
20698;DHT22;10508;50.956;4.640;2024-01-11T05:15:50;-4.60;99.90
20698;DHT22;10508;50.956;4.640;2024-01-11T05:18:16;-4.40;99.90
20698;DHT22;10508;50.956;4.640;2024-01-11T05:20:41;-4.30;99.90
20698;DHT22;10508;50.956;4.640;2024-01-11T05:23:07;-4.60;99.90
20698;DHT22;10508;50.956;4.640;2024-01-11T05:25:33;-4.60;99.90
20698;DHT22;10508;50.956;4.640;2024-01-11T05:28:02;-4.60;99.90
20698;DHT22;10508;50.956;4.640;2024-01-11T05:30:29;-4.70;99.90
20698;DHT22;10508;50.956;4.640;2024-01-11T05:32:55;-4.50;99.90
20698;DHT22;10508;50.956;4.640;2024-01-11T05:35:21;-4.70;99.90
20698;DHT22;10508;50.956;4.640;2024-01-11T05:37:50;-4.70;99.90
20698;DHT22;10508;50.956;4.640;2024-01-11T05:40:15;-4.70;99.90
20698;DHT22;10508;50.956;4.640;2024-01-11T05:42:41;-4.70;99.90
20698;DHT22;10508;50.956;4.640;2024-01-11T05:45:07;-4.60;99.90
20698;DHT22;10508;50.956;4.640;2024-01-11T05:47:33;-4.70;99.90
20698;DHT22;10508;50.956;4.640;2024-01-11T05:49:58;-4.70;99.90
20698;DHT22;10508;50.956;4.640;2024-01-11T05:52:24;-4.60;99.90
20698;DHT22;10508;50.956;4.640;2024-01-11T05:54:50;-4.70;99.90
20698;DHT22;10508;50.956;4.640;2024-01-11T05:57:16;-4.70;99.90
20698;DHT22;10508;50.956;4.640;2024-01-11T05:59:45;-4.70;99.90
20698;DHT22;10508;50.956;4.640;2024-01-11T06:02:12;-4.80;99.90
20698;DHT22;10508;50.956;4.640;2024-01-11T06:07:04;-4.80;99.90
20698;DHT22;10508;50.956;4.640;2024-01-11T06:09:29;-4.70;99.90
20698;DHT22;10508;50.956;4.640;2024-01-11T06:11:55;-4.40;99.90
20698;DHT22;10508;50.956;4.640;2024-01-11T06:14:21;-4.60;99.90
20698;DHT22;10508;50.956;4.640;2024-01-11T06:16:46;-4.50;99.90
20698;DHT22;10508;50.956;4.640;2024-01-11T06:19:12;-4.60;99.90
20698;DHT22;10508;50.956;4.640;2024-01-11T06:21:38;-4.50;99.90
20698;DHT22;10508;50.956;4.640;2024-01-11T06:24:04;-4.50;99.90
20698;DHT22;10508;50.956;4.640;2024-01-11T06:26:29;-4.60;99.90
20698;DHT22;10508;50.956;4.640;2024-01-11T06:28:55;-4.50;99.90
20698;DHT22;10508;50.956;4.640;2024-01-11T06:31:21;-4.50;99.90
20698;DHT22;10508;50.956;4.640;2024-01-11T06:33:47;-4.60;99.90
20698;DHT22;10508;50.956;4.640;2024-01-11T06:36:12;-4.70;99.90
20698;DHT22;10508;50.956;4.640;2024-01-11T06:38:38;-4.60;99.90
20698;DHT22;10508;50.956;4.640;2024-01-11T06:41:04;-4.50;99.90
20698;DHT22;10508;50.956;4.640;2024-01-11T06:43:30;-4.50;99.90
20698;DHT22;10508;50.956;4.640;2024-01-11T06:45:55;-4.60;99.90
20698;DHT22;10508;50.956;4.640;2024-01-11T06:48:21;-4.80;99.90
20698;DHT22;10508;50.956;4.640;2024-01-11T06:50:47;-4.60;99.90
20698;DHT22;10508;50.956;4.640;2024-01-11T06:53:13;-4.50;99.90
20698;DHT22;10508;50.956;4.640;2024-01-11T06:55:39;-4.70;99.90
20698;DHT22;10508;50.956;4.640;2024-01-11T06:58:06;-4.80;99.90
20698;DHT22;10508;50.956;4.640;2024-01-11T07:00:32;-4.80;99.90
20698;DHT22;10508;50.956;4.640;2024-01-11T07:02:57;-4.80;99.90
20698;DHT22;10508;50.956;4.640;2024-01-11T07:05:23;-4.90;99.90
20698;DHT22;10508;50.956;4.640;2024-01-11T07:07:49;-4.80;99.90
20698;DHT22;10508;50.956;4.640;2024-01-11T07:10:15;-4.70;99.90
20698;DHT22;10508;50.956;4.640;2024-01-11T07:12:41;-4.80;99.90
20698;DHT22;10508;50.956;4.640;2024-01-11T07:15:08;-4.80;99.90
20698;DHT22;10508;50.956;4.640;2024-01-11T07:17:34;-4.60;99.90
20698;DHT22;10508;50.956;4.640;2024-01-11T07:20:00;-4.60;99.90
20698;DHT22;10508;50.956;4.640;2024-01-11T07:22:26;-4.70;99.90
20698;DHT22;10508;50.956;4.640;2024-01-11T07:24:52;-4.80;99.90
20698;DHT22;10508;50.956;4.640;2024-01-11T07:27:17;-4.70;99.90
20698;DHT22;10508;50.956;4.640;2024-01-11T07:29:43;-4.60;99.90
20698;DHT22;10508;50.956;4.640;2024-01-11T07:32:09;-5.00;99.90
20698;DHT22;10508;50.956;4.640;2024-01-11T07:34:35;-4.90;99.90
20698;DHT22;10508;50.956;4.640;2024-01-11T07:37:01;-5.30;99.90
20698;DHT22;10508;50.956;4.640;2024-01-11T07:39:27;-5.20;99.90
20698;DHT22;10508;50.956;4.640;2024-01-11T07:41:53;-5.00;99.90
20698;DHT22;10508;50.956;4.640;2024-01-11T07:44:19;-4.90;99.90
20698;DHT22;10508;50.956;4.640;2024-01-11T07:46:45;-4.90;99.90
20698;DHT22;10508;50.956;4.640;2024-01-11T07:49:11;-4.90;99.90
20698;DHT22;10508;50.956;4.640;2024-01-11T07:51:37;-5.00;99.90
20698;DHT22;10508;50.956;4.640;2024-01-11T07:54:04;-5.10;99.90
20698;DHT22;10508;50.956;4.640;2024-01-11T07:56:30;-5.10;99.90
20698;DHT22;10508;50.956;4.640;2024-01-11T07:58:56;-5.20;99.90
20698;DHT22;10508;50.956;4.640;2024-01-11T08:11:17;-5.10;99.90
20698;DHT22;10508;50.956;4.640;2024-01-11T08:13:43;-5.00;99.90
20698;DHT22;10508;50.956;4.640;2024-01-11T08:18:37;-5.00;99.90
20698;DHT22;10508;50.956;4.640;2024-01-11T08:21:03;-4.90;99.90
20698;DHT22;10508;50.956;4.640;2024-01-11T08:23:32;-4.90;99.90
20698;DHT22;10508;50.956;4.640;2024-01-11T08:30:50;-4.80;99.90
20698;DHT22;10508;50.956;4.640;2024-01-11T08:33:16;-4.70;99.90
20698;DHT22;10508;50.956;4.640;2024-01-11T08:35:43;-4.40;99.90
20698;DHT22;10508;50.956;4.640;2024-01-11T08:38:09;-4.90;99.90
20698;DHT22;10508;50.956;4.640;2024-01-11T08:40:35;-4.70;99.90
20698;DHT22;10508;50.956;4.640;2024-01-11T08:43:01;-4.80;99.90
20698;DHT22;10508;50.956;4.640;2024-01-11T08:45:26;-4.70;99.90
20698;DHT22;10508;50.956;4.640;2024-01-11T08:47:56;-4.60;99.90
20698;DHT22;10508;50.956;4.640;2024-01-11T08:50:22;-4.40;99.90
20698;DHT22;10508;50.956;4.640;2024-01-11T08:52:48;-4.40;99.90
20698;DHT22;10508;50.956;4.640;2024-01-11T08:55:14;-4.30;99.90
20698;DHT22;10508;50.956;4.640;2024-01-11T08:57:39;-4.30;99.90
20698;DHT22;10508;50.956;4.640;2024-01-11T09:00:05;-4.20;99.90
20698;DHT22;10508;50.956;4.640;2024-01-11T09:02:31;-3.90;99.90
20698;DHT22;10508;50.956;4.640;2024-01-11T09:04:57;-3.90;99.90
20698;DHT22;10508;50.956;4.640;2024-01-11T09:07:23;-4.00;99.90
20698;DHT22;10508;50.956;4.640;2024-01-11T09:09:49;-3.90;99.90
20698;DHT22;10508;50.956;4.640;2024-01-11T09:12:15;-3.90;99.90
20698;DHT22;10508;50.956;4.640;2024-01-11T09:14:40;-3.80;99.90
20698;DHT22;10508;50.956;4.640;2024-01-11T09:17:06;-3.80;99.90
20698;DHT22;10508;50.956;4.640;2024-01-11T09:19:35;-3.70;99.90
20698;DHT22;10508;50.956;4.640;2024-01-11T09:22:03;-3.50;99.90
20698;DHT22;10508;50.956;4.640;2024-01-11T09:24:28;-3.60;99.90
20698;DHT22;10508;50.956;4.640;2024-01-11T09:26:54;-3.30;99.90
20698;DHT22;10508;50.956;4.640;2024-01-11T09:29:20;-3.30;99.90
20698;DHT22;10508;50.956;4.640;2024-01-11T09:31:45;-3.20;99.90
20698;DHT22;10508;50.956;4.640;2024-01-11T09:34:11;-3.30;99.90
20698;DHT22;10508;50.956;4.640;2024-01-11T09:36:37;-3.30;99.90
20698;DHT22;10508;50.956;4.640;2024-01-11T09:39:05;-3.20;99.90
20698;DHT22;10508;50.956;4.640;2024-01-11T09:41:36;-3.00;99.90
20698;DHT22;10508;50.956;4.640;2024-01-11T09:44:05;-3.10;99.90
20698;DHT22;10508;50.956;4.640;2024-01-11T09:46:32;-3.00;99.90
20698;DHT22;10508;50.956;4.640;2024-01-11T09:48:58;-3.00;99.90
20698;DHT22;10508;50.956;4.640;2024-01-11T09:51:26;-2.80;99.90
20698;DHT22;10508;50.956;4.640;2024-01-11T09:53:55;-2.70;99.90
20698;DHT22;10508;50.956;4.640;2024-01-11T09:56:22;-2.60;99.90
20698;DHT22;10508;50.956;4.640;2024-01-11T09:58:50;-2.40;99.90
20698;DHT22;10508;50.956;4.640;2024-01-11T10:01:16;-2.30;99.90
20698;DHT22;10508;50.956;4.640;2024-01-11T10:03:43;-2.30;99.90
20698;DHT22;10508;50.956;4.640;2024-01-11T10:06:10;-2.30;99.90
20698;DHT22;10508;50.956;4.640;2024-01-11T10:08:36;-2.20;99.90
20698;DHT22;10508;50.956;4.640;2024-01-11T10:11:03;-2.20;99.90
20698;DHT22;10508;50.956;4.640;2024-01-11T10:13:30;-2.20;99.90
20698;DHT22;10508;50.956;4.640;2024-01-11T10:16:07;-2.20;99.90
20698;DHT22;10508;50.956;4.640;2024-01-11T10:18:36;-2.20;99.90
20698;DHT22;10508;50.956;4.640;2024-01-11T10:21:02;-2.10;99.90
20698;DHT22;10508;50.956;4.640;2024-01-11T10:23:28;-2.00;99.90
20698;DHT22;10508;50.956;4.640;2024-01-11T10:25:56;-2.00;99.90
20698;DHT22;10508;50.956;4.640;2024-01-11T10:28:23;-1.90;99.90
20698;DHT22;10508;50.956;4.640;2024-01-11T10:30:50;-1.90;99.90
20698;DHT22;10508;50.956;4.640;2024-01-11T10:33:19;-1.80;99.90
20698;DHT22;10508;50.956;4.640;2024-01-11T10:35:46;-1.80;99.90
20698;DHT22;10508;50.956;4.640;2024-01-11T10:38:14;-1.70;99.90
20698;DHT22;10508;50.956;4.640;2024-01-11T10:40:42;-1.60;99.90
20698;DHT22;10508;50.956;4.640;2024-01-11T10:43:11;-1.60;99.90
20698;DHT22;10508;50.956;4.640;2024-01-11T10:45:38;-1.60;99.90
20698;DHT22;10508;50.956;4.640;2024-01-11T10:48:14;-1.50;99.90
20698;DHT22;10508;50.956;4.640;2024-01-11T10:50:44;-1.40;99.90
20698;DHT22;10508;50.956;4.640;2024-01-11T10:53:35;-1.40;99.90
20698;DHT22;10508;50.956;4.640;2024-01-11T10:55:59;-1.30;99.90
20698;DHT22;10508;50.956;4.640;2024-01-11T10:58:26;-0.90;99.90
20698;DHT22;10508;50.956;4.640;2024-01-11T11:00:54;-0.40;99.90
20698;DHT22;10508;50.956;4.640;2024-01-11T11:03:23;0.50;99.90
20698;DHT22;10508;50.956;4.640;2024-01-11T11:05:53;1.60;99.90
20698;DHT22;10508;50.956;4.640;2024-01-11T11:08:22;2.80;99.90
20698;DHT22;10508;50.956;4.640;2024-01-11T11:10:51;4.10;99.90
20698;DHT22;10508;50.956;4.640;2024-01-11T11:13:21;5.30;99.90
20698;DHT22;10508;50.956;4.640;2024-01-11T11:15:48;6.40;99.90
20698;DHT22;10508;50.956;4.640;2024-01-11T11:18:17;7.10;99.90
20698;DHT22;10508;50.956;4.640;2024-01-11T11:20:44;7.30;99.90
20698;DHT22;10508;50.956;4.640;2024-01-11T11:23:13;7.80;99.90
20698;DHT22;10508;50.956;4.640;2024-01-11T11:25:40;8.30;99.90
20698;DHT22;10508;50.956;4.640;2024-01-11T11:28:06;8.80;99.90
20698;DHT22;10508;50.956;4.640;2024-01-11T11:30:42;9.10;99.50
20698;DHT22;10508;50.956;4.640;2024-01-11T11:35:35;9.60;99.10
20698;DHT22;10508;50.956;4.640;2024-01-11T11:38:02;9.20;98.80
20698;DHT22;10508;50.956;4.640;2024-01-11T11:40:38;9.00;99.50
20698;DHT22;10508;50.956;4.640;2024-01-11T11:43:10;8.50;99.90
20698;DHT22;10508;50.956;4.640;2024-01-11T11:45:37;8.80;99.90
20698;DHT22;10508;50.956;4.640;2024-01-11T11:51:09;8.30;99.90
20698;DHT22;10508;50.956;4.640;2024-01-11T11:53:36;8.40;99.80
20698;DHT22;10508;50.956;4.640;2024-01-11T11:56:02;7.80;99.10
20698;DHT22;10508;50.956;4.640;2024-01-11T11:58:33;7.10;99.90
20698;DHT22;10508;50.956;4.640;2024-01-11T12:01:00;6.40;99.90
20698;DHT22;10508;50.956;4.640;2024-01-11T12:03:30;6.20;99.90
20698;DHT22;10508;50.956;4.640;2024-01-11T12:05:56;5.70;99.90
20698;DHT22;10508;50.956;4.640;2024-01-11T12:08:22;5.40;99.90
20698;DHT22;10508;50.956;4.640;2024-01-11T12:10:48;5.40;99.90
20698;DHT22;10508;50.956;4.640;2024-01-11T12:13:14;4.90;99.90
20698;DHT22;10508;50.956;4.640;2024-01-11T12:15:40;5.00;99.90
20698;DHT22;10508;50.956;4.640;2024-01-11T12:18:07;4.70;99.90
20698;DHT22;10508;50.956;4.640;2024-01-11T12:20:33;4.90;99.90
20698;DHT22;10508;50.956;4.640;2024-01-11T12:22:59;5.20;99.90
20698;DHT22;10508;50.956;4.640;2024-01-11T12:25:25;4.80;99.90
20698;DHT22;10508;50.956;4.640;2024-01-11T12:27:51;4.80;99.90
20698;DHT22;10508;50.956;4.640;2024-01-11T12:30:17;4.80;99.90
20698;DHT22;10508;50.956;4.640;2024-01-11T12:32:43;5.10;99.90
20698;DHT22;10508;50.956;4.640;2024-01-11T12:35:10;5.10;99.90
20698;DHT22;10508;50.956;4.640;2024-01-11T12:37:36;5.10;99.90
20698;DHT22;10508;50.956;4.640;2024-01-11T12:40:02;5.00;99.90
20698;DHT22;10508;50.956;4.640;2024-01-11T12:42:29;5.30;99.90
20698;DHT22;10508;50.956;4.640;2024-01-11T12:44:55;5.00;99.90
20698;DHT22;10508;50.956;4.640;2024-01-11T12:47:21;5.00;99.90
20698;DHT22;10508;50.956;4.640;2024-01-11T12:49:47;5.10;99.90
20698;DHT22;10508;50.956;4.640;2024-01-11T12:52:19;5.00;99.90
20698;DHT22;10508;50.956;4.640;2024-01-11T12:54:52;5.20;99.90
20698;DHT22;10508;50.956;4.640;2024-01-11T12:57:18;5.40;99.90
20698;DHT22;10508;50.956;4.640;2024-01-11T12:59:48;5.60;99.90
20698;DHT22;10508;50.956;4.640;2024-01-11T13:02:15;5.50;99.90
20698;DHT22;10508;50.956;4.640;2024-01-11T13:04:45;5.40;99.90
20698;DHT22;10508;50.956;4.640;2024-01-11T13:07:11;5.50;99.90
20698;DHT22;10508;50.956;4.640;2024-01-11T13:09:38;5.30;99.90
20698;DHT22;10508;50.956;4.640;2024-01-11T13:12:04;5.10;99.90
20698;DHT22;10508;50.956;4.640;2024-01-11T13:14:30;4.70;99.90
20698;DHT22;10508;50.956;4.640;2024-01-11T13:16:57;4.30;99.90
20698;DHT22;10508;50.956;4.640;2024-01-11T13:19:23;4.30;99.90
20698;DHT22;10508;50.956;4.640;2024-01-11T13:21:49;4.20;99.90
20698;DHT22;10508;50.956;4.640;2024-01-11T13:24:14;4.20;99.90
20698;DHT22;10508;50.956;4.640;2024-01-11T13:26:40;4.10;99.90
20698;DHT22;10508;50.956;4.640;2024-01-11T13:29:06;4.30;99.90
20698;DHT22;10508;50.956;4.640;2024-01-11T13:31:32;4.40;99.90
20698;DHT22;10508;50.956;4.640;2024-01-11T13:33:58;4.50;99.90
20698;DHT22;10508;50.956;4.640;2024-01-11T13:36:24;4.80;99.90
20698;DHT22;10508;50.956;4.640;2024-01-11T13:38:50;4.90;99.90
20698;DHT22;10508;50.956;4.640;2024-01-11T13:41:17;4.90;99.90
20698;DHT22;10508;50.956;4.640;2024-01-11T13:43:43;4.80;99.90
20698;DHT22;10508;50.956;4.640;2024-01-11T13:46:09;4.70;99.90
20698;DHT22;10508;50.956;4.640;2024-01-11T13:48:35;4.60;99.90
20698;DHT22;10508;50.956;4.640;2024-01-11T13:51:01;4.40;99.90
20698;DHT22;10508;50.956;4.640;2024-01-11T13:53:29;4.30;99.90
20698;DHT22;10508;50.956;4.640;2024-01-11T13:55:55;4.30;99.90
20698;DHT22;10508;50.956;4.640;2024-01-11T13:58:21;4.10;99.90
20698;DHT22;10508;50.956;4.640;2024-01-11T14:00:47;4.00;99.90
20698;DHT22;10508;50.956;4.640;2024-01-11T14:03:13;3.90;99.90
20698;DHT22;10508;50.956;4.640;2024-01-11T14:05:38;3.70;99.90
20698;DHT22;10508;50.956;4.640;2024-01-11T14:08:04;3.60;99.90
20698;DHT22;10508;50.956;4.640;2024-01-11T14:10:34;3.70;99.90
20698;DHT22;10508;50.956;4.640;2024-01-11T14:13:00;3.50;99.90
20698;DHT22;10508;50.956;4.640;2024-01-11T14:15:26;3.50;99.90
20698;DHT22;10508;50.956;4.640;2024-01-11T14:17:52;3.50;99.90
20698;DHT22;10508;50.956;4.640;2024-01-11T14:20:18;3.40;99.90
20698;DHT22;10508;50.956;4.640;2024-01-11T14:22:45;3.30;99.90
20698;DHT22;10508;50.956;4.640;2024-01-11T14:25:21;3.20;99.90
20698;DHT22;10508;50.956;4.640;2024-01-11T14:27:47;3.10;99.90
20698;DHT22;10508;50.956;4.640;2024-01-11T14:30:13;3.10;99.90
20698;DHT22;10508;50.956;4.640;2024-01-11T14:32:39;3.00;99.90
20698;DHT22;10508;50.956;4.640;2024-01-11T14:35:07;2.80;99.90
20698;DHT22;10508;50.956;4.640;2024-01-11T14:37:37;2.80;99.90
20698;DHT22;10508;50.956;4.640;2024-01-11T14:40:05;2.80;99.90
20698;DHT22;10508;50.956;4.640;2024-01-11T14:42:31;2.70;99.90
20698;DHT22;10508;50.956;4.640;2024-01-11T14:44:57;2.60;99.90
20698;DHT22;10508;50.956;4.640;2024-01-11T14:47:23;2.50;99.90
20698;DHT22;10508;50.956;4.640;2024-01-11T14:49:48;2.60;99.90
20698;DHT22;10508;50.956;4.640;2024-01-11T14:52:14;2.60;99.90
20698;DHT22;10508;50.956;4.640;2024-01-11T14:54:40;2.50;99.90
20698;DHT22;10508;50.956;4.640;2024-01-11T14:57:06;2.70;99.90
20698;DHT22;10508;50.956;4.640;2024-01-11T15:02:01;2.40;99.90
20698;DHT22;10508;50.956;4.640;2024-01-11T15:04:28;2.40;99.90
20698;DHT22;10508;50.956;4.640;2024-01-11T15:06:53;2.40;99.90
20698;DHT22;10508;50.956;4.640;2024-01-11T15:09:19;2.40;99.90
20698;DHT22;10508;50.956;4.640;2024-01-11T15:11:44;2.40;99.90
20698;DHT22;10508;50.956;4.640;2024-01-11T15:14:10;2.30;99.90
20698;DHT22;10508;50.956;4.640;2024-01-11T15:16:37;2.30;99.90
20698;DHT22;10508;50.956;4.640;2024-01-11T15:19:03;2.30;99.90
20698;DHT22;10508;50.956;4.640;2024-01-11T15:21:29;2.10;99.90
20698;DHT22;10508;50.956;4.640;2024-01-11T15:23:56;2.10;99.90
20698;DHT22;10508;50.956;4.640;2024-01-11T15:26:22;2.10;99.90
20698;DHT22;10508;50.956;4.640;2024-01-11T15:31:14;1.80;99.90
20698;DHT22;10508;50.956;4.640;2024-01-11T15:33:40;2.10;99.90
20698;DHT22;10508;50.956;4.640;2024-01-11T15:36:06;2.00;99.90
20698;DHT22;10508;50.956;4.640;2024-01-11T15:38:32;2.00;99.90
20698;DHT22;10508;50.956;4.640;2024-01-11T15:40:57;2.10;99.90
20698;DHT22;10508;50.956;4.640;2024-01-11T15:43:23;2.10;99.90
20698;DHT22;10508;50.956;4.640;2024-01-11T15:45:49;2.00;99.90
20698;DHT22;10508;50.956;4.640;2024-01-11T15:48:15;2.00;99.90
20698;DHT22;10508;50.956;4.640;2024-01-11T15:50:41;2.10;99.90
20698;DHT22;10508;50.956;4.640;2024-01-11T15:53:07;2.00;99.90
20698;DHT22;10508;50.956;4.640;2024-01-11T15:55:34;2.00;99.90
20698;DHT22;10508;50.956;4.640;2024-01-11T15:58:00;1.90;99.90
20698;DHT22;10508;50.956;4.640;2024-01-11T16:00:27;1.80;99.90
20698;DHT22;10508;50.956;4.640;2024-01-11T16:02:53;1.80;99.90
20698;DHT22;10508;50.956;4.640;2024-01-11T16:05:22;1.80;99.90
20698;DHT22;10508;50.956;4.640;2024-01-11T16:07:49;1.60;99.90
20698;DHT22;10508;50.956;4.640;2024-01-11T16:10:15;1.90;99.90
20698;DHT22;10508;50.956;4.640;2024-01-11T16:12:41;1.70;99.90
20698;DHT22;10508;50.956;4.640;2024-01-11T16:15:07;1.70;99.90
20698;DHT22;10508;50.956;4.640;2024-01-11T16:19:59;1.50;99.90
20698;DHT22;10508;50.956;4.640;2024-01-11T16:22:25;1.60;99.90
20698;DHT22;10508;50.956;4.640;2024-01-11T16:24:51;1.60;99.90
20698;DHT22;10508;50.956;4.640;2024-01-11T16:27:17;1.60;99.90
20698;DHT22;10508;50.956;4.640;2024-01-11T16:29:43;1.60;99.90
20698;DHT22;10508;50.956;4.640;2024-01-11T16:32:09;1.60;99.90
20698;DHT22;10508;50.956;4.640;2024-01-11T16:34:39;1.50;99.90
20698;DHT22;10508;50.956;4.640;2024-01-11T16:37:05;1.70;99.90
20698;DHT22;10508;50.956;4.640;2024-01-11T16:39:31;1.90;99.90
20698;DHT22;10508;50.956;4.640;2024-01-11T16:41:57;1.70;99.90
20698;DHT22;10508;50.956;4.640;2024-01-11T16:44:22;1.70;99.90
20698;DHT22;10508;50.956;4.640;2024-01-11T16:49:17;1.70;99.90
20698;DHT22;10508;50.956;4.640;2024-01-11T16:51:49;1.90;99.90
20698;DHT22;10508;50.956;4.640;2024-01-11T16:54:18;1.90;99.90
20698;DHT22;10508;50.956;4.640;2024-01-11T16:56:44;2.10;99.90
20698;DHT22;10508;50.956;4.640;2024-01-11T16:59:10;1.90;99.90
20698;DHT22;10508;50.956;4.640;2024-01-11T17:01:38;2.00;99.90
20698;DHT22;10508;50.956;4.640;2024-01-11T17:04:04;2.00;99.90
20698;DHT22;10508;50.956;4.640;2024-01-11T17:06:35;1.40;99.90
20698;DHT22;10508;50.956;4.640;2024-01-11T17:09:01;1.80;99.90
20698;DHT22;10508;50.956;4.640;2024-01-11T17:11:30;1.70;99.90
20698;DHT22;10508;50.956;4.640;2024-01-11T17:16:25;1.90;99.90
20698;DHT22;10508;50.956;4.640;2024-01-11T17:31:10;2.00;99.90
20698;DHT22;10508;50.956;4.640;2024-01-11T17:33:36;2.20;99.90
20698;DHT22;10508;50.956;4.640;2024-01-11T17:36:01;2.30;99.90
20698;DHT22;10508;50.956;4.640;2024-01-11T17:43:24;2.30;99.90
20698;DHT22;10508;50.956;4.640;2024-01-11T17:45:50;2.40;99.90
20698;DHT22;10508;50.956;4.640;2024-01-11T17:48:16;2.00;99.90
20698;DHT22;10508;50.956;4.640;2024-01-11T17:50:42;2.20;99.90
20698;DHT22;10508;50.956;4.640;2024-01-11T17:53:08;2.40;99.90
20698;DHT22;10508;50.956;4.640;2024-01-11T17:55:34;2.50;99.90
20698;DHT22;10508;50.956;4.640;2024-01-11T17:58:00;2.30;99.90
20698;DHT22;10508;50.956;4.640;2024-01-11T18:00:27;2.30;99.90
20698;DHT22;10508;50.956;4.640;2024-01-11T18:02:55;2.20;99.90
20698;DHT22;10508;50.956;4.640;2024-01-11T18:05:21;2.20;99.90
20698;DHT22;10508;50.956;4.640;2024-01-11T18:07:47;2.30;99.90
20698;DHT22;10508;50.956;4.640;2024-01-11T18:10:12;2.20;99.90
20698;DHT22;10508;50.956;4.640;2024-01-11T18:12:40;1.90;99.90
20698;DHT22;10508;50.956;4.640;2024-01-11T18:15:07;1.90;99.90
20698;DHT22;10508;50.956;4.640;2024-01-11T18:17:33;1.80;99.90
20698;DHT22;10508;50.956;4.640;2024-01-11T18:20:00;1.90;99.90
20698;DHT22;10508;50.956;4.640;2024-01-11T18:22:26;1.90;99.90
20698;DHT22;10508;50.956;4.640;2024-01-11T18:24:52;2.00;99.90
20698;DHT22;10508;50.956;4.640;2024-01-11T18:27:18;2.20;99.90
20698;DHT22;10508;50.956;4.640;2024-01-11T18:29:45;2.10;99.90
20698;DHT22;10508;50.956;4.640;2024-01-11T18:32:10;2.10;99.90
20698;DHT22;10508;50.956;4.640;2024-01-11T18:34:37;2.10;99.90
20698;DHT22;10508;50.956;4.640;2024-01-11T18:37:03;2.00;99.90
20698;DHT22;10508;50.956;4.640;2024-01-11T18:39:29;1.80;99.90
20698;DHT22;10508;50.956;4.640;2024-01-11T18:41:54;2.00;99.90
20698;DHT22;10508;50.956;4.640;2024-01-11T18:44:23;1.60;99.90
20698;DHT22;10508;50.956;4.640;2024-01-11T18:49:16;1.80;99.90
20698;DHT22;10508;50.956;4.640;2024-01-11T18:51:43;1.80;99.90
20698;DHT22;10508;50.956;4.640;2024-01-11T18:59:04;1.90;99.90
20698;DHT22;10508;50.956;4.640;2024-01-11T19:01:30;2.30;99.90
20698;DHT22;10508;50.956;4.640;2024-01-11T19:03:56;2.20;99.90
20698;DHT22;10508;50.956;4.640;2024-01-11T19:06:23;2.10;99.90
20698;DHT22;10508;50.956;4.640;2024-01-11T19:08:49;2.00;99.90
20698;DHT22;10508;50.956;4.640;2024-01-11T19:11:15;2.10;99.90
20698;DHT22;10508;50.956;4.640;2024-01-11T19:13:40;1.90;99.90
20698;DHT22;10508;50.956;4.640;2024-01-11T19:16:06;2.00;99.90
20698;DHT22;10508;50.956;4.640;2024-01-11T19:18:32;2.00;99.90
20698;DHT22;10508;50.956;4.640;2024-01-11T19:23:24;1.50;99.90
20698;DHT22;10508;50.956;4.640;2024-01-11T19:25:54;2.10;99.90
20698;DHT22;10508;50.956;4.640;2024-01-11T19:28:20;2.10;99.90
20698;DHT22;10508;50.956;4.640;2024-01-11T19:30:46;2.00;99.90
20698;DHT22;10508;50.956;4.640;2024-01-11T19:33:14;1.90;99.90
20698;DHT22;10508;50.956;4.640;2024-01-11T19:35:45;1.80;99.90
20698;DHT22;10508;50.956;4.640;2024-01-11T19:38:11;1.90;99.90
20698;DHT22;10508;50.956;4.640;2024-01-11T19:40:40;1.80;99.90
20698;DHT22;10508;50.956;4.640;2024-01-11T19:43:06;1.90;99.90
20698;DHT22;10508;50.956;4.640;2024-01-11T19:45:32;2.00;99.90
20698;DHT22;10508;50.956;4.640;2024-01-11T19:47:57;1.90;99.90
20698;DHT22;10508;50.956;4.640;2024-01-11T19:50:24;1.80;99.90
20698;DHT22;10508;50.956;4.640;2024-01-11T19:52:50;1.90;99.90
20698;DHT22;10508;50.956;4.640;2024-01-11T19:55:16;1.90;99.90
20698;DHT22;10508;50.956;4.640;2024-01-11T19:57:42;1.90;99.90
20698;DHT22;10508;50.956;4.640;2024-01-11T20:00:08;1.80;99.90
20698;DHT22;10508;50.956;4.640;2024-01-11T20:02:35;1.90;99.90
20698;DHT22;10508;50.956;4.640;2024-01-11T20:05:03;1.80;99.90
20698;DHT22;10508;50.956;4.640;2024-01-11T20:07:30;1.80;99.90
20698;DHT22;10508;50.956;4.640;2024-01-11T20:09:56;1.90;99.90
20698;DHT22;10508;50.956;4.640;2024-01-11T20:12:22;1.80;99.90
20698;DHT22;10508;50.956;4.640;2024-01-11T20:17:15;1.70;99.90
20698;DHT22;10508;50.956;4.640;2024-01-11T20:19:43;1.90;99.90
20698;DHT22;10508;50.956;4.640;2024-01-11T20:22:09;1.70;99.90
20698;DHT22;10508;50.956;4.640;2024-01-11T20:29:38;1.80;99.90
20698;DHT22;10508;50.956;4.640;2024-01-11T20:32:04;1.90;99.90
20698;DHT22;10508;50.956;4.640;2024-01-11T20:34:29;1.80;99.90
20698;DHT22;10508;50.956;4.640;2024-01-11T20:36:55;1.70;99.90
20698;DHT22;10508;50.956;4.640;2024-01-11T20:39:21;1.90;99.90
20698;DHT22;10508;50.956;4.640;2024-01-11T20:41:46;1.80;99.90
20698;DHT22;10508;50.956;4.640;2024-01-11T20:44:12;1.80;99.90
20698;DHT22;10508;50.956;4.640;2024-01-11T20:46:38;1.90;99.90
20698;DHT22;10508;50.956;4.640;2024-01-11T20:49:04;1.80;99.90
20698;DHT22;10508;50.956;4.640;2024-01-11T20:51:30;1.90;99.90
20698;DHT22;10508;50.956;4.640;2024-01-11T20:53:55;1.80;99.90
20698;DHT22;10508;50.956;4.640;2024-01-11T20:56:26;1.80;99.90
20698;DHT22;10508;50.956;4.640;2024-01-11T20:58:54;1.90;99.90
20698;DHT22;10508;50.956;4.640;2024-01-11T21:01:20;2.10;99.90